Time;durP1;ratioP1;P1;durP2;ratioP2;P2;SDS_P1;SDS_P2;PMS_P1;PMS_P2;Temp;Humidity;BMP_temperature;BMP_pressure;BME280_temperature;BME280_humidity;BME280_pressure;Samples;Min_cycle;Max_cycle;Signal;HPM_P1;HPM_P2
2023/02/17 00:02:02;;;;;;;34.70;20.23;;;;;;;7.93;100.00;100954.72;5222240;28;20068;-72
2023/02/17 00:04:33;;;;;;;37.40;21.58;;;;;;;7.97;100.00;100954.66;5222027;28;20213;-72
2023/02/17 00:07:03;;;;;;;35.30;20.20;;;;;;;8.06;100.00;100949.25;5222000;28;20032;-73
2023/02/17 00:09:35;;;;;;;36.13;20.80;;;;;;;8.16;100.00;100942.97;5209907;28;20031;-73
2023/02/17 00:12:05;;;;;;;36.33;20.17;;;;;;;8.17;100.00;100936.88;5220986;28;20186;-72
2023/02/17 00:14:38;;;;;;;34.10;19.73;;;;;;;8.18;100.00;100938.63;5220552;28;20115;-72
2023/02/17 00:17:08;;;;;;;38.17;20.73;;;;;;;8.23;100.00;100934.19;5221316;28;20458;-72
2023/02/17 00:19:39;;;;;;;34.85;19.40;;;;;;;8.24;100.00;100929.84;5222023;28;20025;-72
2023/02/17 00:22:09;;;;;;;35.13;19.50;;;;;;;8.18;100.00;100936.03;5221605;28;20120;-72
2023/02/17 00:24:40;;;;;;;32.65;19.30;;;;;;;8.27;100.00;100935.84;5220359;28;20501;-71
2023/02/17 00:27:11;;;;;;;33.78;20.05;;;;;;;8.26;100.00;100926.34;5220521;28;20139;-73
2023/02/17 00:29:41;;;;;;;32.90;19.05;;;;;;;8.28;100.00;100931.50;5223616;28;20154;-73
2023/02/17 00:32:11;;;;;;;32.40;19.30;;;;;;;8.25;100.00;100935.00;5220768;28;20051;-73
2023/02/17 00:34:42;;;;;;;31.80;18.63;;;;;;;8.27;100.00;100943.66;5220021;28;20021;-72
2023/02/17 00:37:12;;;;;;;35.40;18.55;;;;;;;8.36;100.00;100935.66;5219631;28;20076;-71
2023/02/17 00:39:42;;;;;;;30.05;18.33;;;;;;;8.35;100.00;100941.75;5220436;28;20032;-73
2023/02/17 00:42:12;;;;;;;34.28;19.13;;;;;;;8.41;100.00;100941.63;5220673;28;20059;-72
2023/02/17 00:44:43;;;;;;;36.30;19.27;;;;;;;8.37;100.00;100944.34;5220358;28;20020;-71
2023/02/17 00:47:13;;;;;;;36.00;19.52;;;;;;;8.53;100.00;100941.38;5220827;28;20471;-71
2023/02/17 00:49:43;;;;;;;32.88;19.00;;;;;;;8.51;100.00;100932.72;5220565;28;20033;-72
2023/02/17 00:52:14;;;;;;;32.72;18.58;;;;;;;8.49;100.00;100926.69;5220907;28;20029;-71
2023/02/17 00:54:44;;;;;;;33.22;18.73;;;;;;;8.51;100.00;100929.25;5220965;28;20029;-71
2023/02/17 00:57:14;;;;;;;33.88;18.60;;;;;;;8.54;100.00;100931.81;5221640;28;20037;-71
2023/02/17 00:59:45;;;;;;;30.52;18.67;;;;;;;8.58;100.00;100934.28;5222448;28;20056;-72
2023/02/17 01:02:15;;;;;;;30.05;17.90;;;;;;;8.64;100.00;100928.97;5219616;28;20093;-72
2023/02/17 01:04:45;;;;;;;31.08;18.45;;;;;;;8.71;100.00;100930.53;5218681;28;20035;-72
2023/02/17 01:07:15;;;;;;;31.52;17.65;;;;;;;8.60;100.00;100927.34;5220471;28;20435;-72
2023/02/17 01:09:46;;;;;;;30.02;17.98;;;;;;;8.68;100.00;100925.41;5220697;28;20115;-71
2023/02/17 01:12:16;;;;;;;29.48;17.58;;;;;;;8.56;100.00;100907.44;5219800;28;20025;-72
2023/02/17 01:14:47;;;;;;;31.90;17.30;;;;;;;8.59;100.00;100915.16;5220372;28;20036;-71
2023/02/17 01:17:17;;;;;;;32.75;16.95;;;;;;;8.67;100.00;100913.25;5219682;28;20072;-71
2023/02/17 01:19:47;;;;;;;31.63;17.48;;;;;;;8.62;100.00;100906.44;5220046;28;20024;-71
2023/02/17 01:22:17;;;;;;;30.25;17.20;;;;;;;8.55;100.00;100904.88;5220354;28;20282;-72
2023/02/17 01:24:48;;;;;;;32.88;17.63;;;;;;;8.61;100.00;100903.00;5219275;28;20557;-72
2023/02/17 01:27:18;;;;;;;27.95;16.70;;;;;;;8.58;100.00;100902.19;5219874;28;20115;-71
2023/02/17 01:29:48;;;;;;;27.80;17.48;;;;;;;8.53;100.00;100891.88;5220015;28;20063;-71
2023/02/17 01:32:19;;;;;;;30.80;17.25;;;;;;;8.67;100.00;100900.25;5219934;28;20171;-72
2023/02/17 01:34:49;;;;;;;33.08;17.70;;;;;;;8.59;100.00;100886.50;5217834;28;20466;-72
2023/02/17 01:37:19;;;;;;;29.42;17.20;;;;;;;8.53;100.00;100894.47;5218854;28;20037;-72
2023/02/17 01:39:49;;;;;;;28.65;15.77;;;;;;;8.55;100.00;100887.47;5214334;28;20029;-72
2023/02/17 01:42:20;;;;;;;28.85;16.13;;;;;;;8.55;100.00;100882.28;5213017;28;20389;-73
2023/02/17 01:45:18;;;;;;;31.52;17.35;;;;;;;8.46;100.00;100887.69;5216465;28;20020;-74
2023/02/17 01:47:59;;;;;;;28.23;16.55;;;;;;;8.49;100.00;100869.41;5217415;28;20510;-71
2023/02/17 01:50:42;;;;;;;28.58;16.75;;;;;;;8.57;100.00;100871.84;5218956;28;20051;-73
2023/02/17 01:53:18;;;;;;;30.25;16.77;;;;;;;8.58;100.00;100856.16;5216346;28;20033;-73
2023/02/17 01:55:51;;;;;;;29.35;17.13;;;;;;;8.55;100.00;100858.81;5219045;28;20025;-72
2023/02/17 01:58:23;;;;;;;27.60;16.63;;;;;;;8.60;100.00;100849.19;5219847;28;20103;-72
2023/02/17 02:00:57;;;;;;;29.98;16.73;;;;;;;8.57;100.00;100846.63;5221674;28;20506;-71
2023/02/17 02:03:32;;;;;;;29.55;16.60;;;;;;;8.60;100.00;100832.69;5221469;28;20025;-72
2023/02/17 02:06:06;;;;;;;30.58;16.85;;;;;;;8.58;100.00;100840.50;5219592;28;20036;-72
2023/02/17 02:08:50;;;;;;;27.17;15.93;;;;;;;8.60;100.00;100822.25;5218988;28;20020;-73
2023/02/17 02:11:20;;;;;;;31.73;16.02;;;;;;;8.62;100.00;100823.94;5214595;28;20099;-72
2023/02/17 02:13:51;;;;;;;27.48;15.45;;;;;;;8.61;100.00;100822.25;5218974;28;20529;-72
2023/02/17 02:16:42;;;;;;;29.58;15.35;;;;;;;8.60;100.00;100810.09;5218835;28;20063;-73
2023/02/17 02:19:31;;;;;;;28.73;15.73;;;;;;;8.60;100.00;100817.94;5218256;28;20098;-72
2023/02/17 02:22:18;;;;;;;28.35;15.32;;;;;;;8.66;100.00;100809.94;5218118;28;20039;-72
2023/02/17 02:25:03;;;;;;;28.65;16.17;;;;;;;8.59;100.00;100818.78;5233117;22;20061;-72
2023/02/17 02:27:34;;;;;;;28.00;15.67;;;;;;;8.63;100.00;100810.03;5181049;28;20052;-74
2023/02/17 02:30:33;;;;;;;27.80;16.58;;;;;;;8.59;100.00;100810.13;5182546;28;20029;-74
2023/02/17 02:33:26;;;;;;;29.23;17.25;;;;;;;8.49;100.00;100821.66;5201530;28;20037;-73
2023/02/17 02:36:16;;;;;;;27.52;16.63;;;;;;;8.46;100.00;100822.59;5196450;28;20033;-73
2023/02/17 02:39:03;;;;;;;26.45;16.35;;;;;;;8.54;100.00;100812.84;5194138;28;20037;-72
2023/02/17 02:41:38;;;;;;;31.02;16.90;;;;;;;8.55;100.00;100809.34;5188401;28;20113;-73
2023/02/17 02:44:11;;;;;;;30.83;15.90;;;;;;;8.57;100.00;100811.91;5198324;28;20044;-73
2023/02/17 02:46:42;;;;;;;26.92;17.15;;;;;;;8.56;100.00;100808.44;5195218;28;20522;-73
2023/02/17 02:49:12;;;;;;;27.95;16.92;;;;;;;8.46;100.00;100814.78;5195189;28;20064;-74
2023/02/17 02:51:56;;;;;;;30.25;16.88;;;;;;;8.52;100.00;100804.19;5182225;28;20386;-74
2023/02/17 02:54:45;;;;;;;26.83;15.98;;;;;;;8.54;100.00;100797.22;5185543;28;20120;-73
2023/02/17 02:57:32;;;;;;;25.42;16.27;;;;;;;8.53;100.00;100792.91;5195382;28;20253;-74
2023/02/17 03:00:11;;;;;;;23.80;15.18;;;;;;;8.49;100.00;100798.19;5197756;28;20025;-74
2023/02/17 03:03:19;;;;;;;25.30;15.25;;;;;;;8.50;100.00;100781.69;5195572;28;20349;-73
2023/02/17 03:06:02;;;;;;;23.33;14.68;;;;;;;8.65;100.00;100773.50;5195192;28;20436;-72
2023/02/17 03:08:38;;;;;;;29.48;15.32;;;;;;;8.61;100.00;100777.09;5198815;28;20054;-72
2023/02/17 03:11:08;;;;;;;25.27;14.75;;;;;;;8.61;100.00;100775.34;5197730;28;20041;-72
2023/02/17 03:13:39;;;;;;;26.48;15.00;;;;;;;8.62;100.00;100764.03;5180465;28;20041;-74
2023/02/17 03:16:13;;;;;;;24.98;14.98;;;;;;;8.55;100.00;100764.22;5196220;28;20025;-72
2023/02/17 03:18:43;;;;;;;23.50;14.70;;;;;;;8.58;100.00;100758.94;5198313;28;20417;-74
2023/02/17 03:21:15;;;;;;;23.08;14.02;;;;;;;8.68;100.00;100760.38;5202099;28;20021;-74
2023/02/17 03:23:45;;;;;;;23.20;14.07;;;;;;;8.61;100.00;100762.31;5201890;28;20533;-74
2023/02/17 03:26:15;;;;;;;24.52;15.07;;;;;;;8.55;100.00;100759.84;5202086;28;20072;-75
2023/02/17 03:28:46;;;;;;;22.65;14.27;;;;;;;8.54;100.00;100747.72;5206186;28;20099;-74
2023/02/17 03:31:16;;;;;;;22.98;15.10;;;;;;;8.51;100.00;100753.00;5202159;28;20033;-73
2023/02/17 03:33:46;;;;;;;25.75;15.13;;;;;;;8.58;100.00;100751.94;5199521;28;20095;-74
2023/02/17 03:36:17;;;;;;;26.55;15.80;;;;;;;8.65;100.00;100750.94;5201088;28;20028;-73
2023/02/17 03:38:47;;;;;;;25.40;14.90;;;;;;;8.69;100.00;100749.94;5201445;28;20032;-73
2023/02/17 03:41:17;;;;;;;26.45;15.32;;;;;;;8.68;100.00;100755.19;5201688;28;20060;-74
2023/02/17 03:43:48;;;;;;;23.55;14.55;;;;;;;8.75;100.00;100739.34;5201592;28;20116;-75
2023/02/17 03:46:18;;;;;;;25.40;15.77;;;;;;;8.75;100.00;100743.72;5201030;28;20238;-73
2023/02/17 03:48:48;;;;;;;26.17;16.05;;;;;;;8.83;100.00;100747.84;5201490;28;20025;-74
2023/02/17 03:51:21;;;;;;;27.08;15.27;;;;;;;8.82;100.00;100735.72;5191968;28;20379;-73
2023/02/17 03:53:52;;;;;;;28.02;16.17;;;;;;;8.76;100.00;100729.81;5201783;28;20036;-74
2023/02/17 03:56:22;;;;;;;23.08;14.85;;;;;;;8.77;100.00;100732.38;5200464;28;20025;-75
2023/02/17 03:58:53;;;;;;;26.63;15.25;;;;;;;8.75;100.00;100733.31;5201039;28;20021;-73
2023/02/17 04:01:23;;;;;;;22.27;13.60;;;;;;;8.73;100.00;100733.34;5200757;28;20025;-74
2023/02/17 04:03:53;;;;;;;24.65;14.60;;;;;;;8.74;100.00;100744.63;5186465;28;20018;-73
2023/02/17 04:06:24;;;;;;;24.23;14.38;;;;;;;8.72;100.00;100733.41;5201169;28;20068;-73
2023/02/17 04:08:54;;;;;;;25.10;14.85;;;;;;;8.72;100.00;100730.78;5187673;28;20037;-75
2023/02/17 04:11:25;;;;;;;25.52;14.75;;;;;;;8.81;100.00;100713.16;5200913;28;20483;-74
2023/02/17 04:13:55;;;;;;;24.75;15.13;;;;;;;8.84;100.00;100707.88;5199644;28;20353;-75
2023/02/17 04:16:25;;;;;;;26.10;15.52;;;;;;;8.71;100.00;100705.63;5200695;28;20060;-73
2023/02/17 04:18:55;;;;;;;25.17;14.40;;;;;;;8.83;100.00;100715.72;5200664;28;20025;-73
2023/02/17 04:21:26;;;;;;;26.02;14.90;;;;;;;8.82;100.00;100706.19;5200834;28;20029;-74
2023/02/17 04:23:58;;;;;;;23.15;14.15;;;;;;;8.82;100.00;100701.84;5200816;28;20495;-73
2023/02/17 04:26:29;;;;;;;21.33;13.50;;;;;;;8.81;100.00;100707.94;5204314;28;20029;-74
2023/02/17 04:29:03;;;;;;;22.30;13.10;;;;;;;8.81;100.00;100717.50;5191260;28;20112;-73
2023/02/17 04:31:33;;;;;;;20.48;13.30;;;;;;;8.79;100.00;100719.31;5198423;28;20021;-74
2023/02/17 04:34:03;;;;;;;19.00;12.13;;;;;;;8.82;100.00;100721.81;5199943;28;20036;-73
2023/02/17 04:36:34;;;;;;;22.15;13.68;;;;;;;8.84;100.00;100718.28;5200519;28;20030;-73
2023/02/17 04:39:04;;;;;;;20.33;12.98;;;;;;;8.82;100.00;100714.00;5200931;28;20069;-75
2023/02/17 04:41:34;;;;;;;18.42;12.38;;;;;;;8.83;100.00;100716.59;5190551;28;20033;-74
2023/02/17 04:44:04;;;;;;;19.38;12.57;;;;;;;8.75;100.00;100718.50;5199564;28;20025;-74
2023/02/17 04:46:35;;;;;;;21.17;13.50;;;;;;;8.81;100.00;100713.16;5199551;28;20036;-73
2023/02/17 04:49:05;;;;;;;22.27;13.35;;;;;;;8.94;100.00;100719.78;5199760;28;20431;-73
2023/02/17 04:51:35;;;;;;;19.67;12.85;;;;;;;8.93;100.00;100712.81;5200940;28;20033;-74
2023/02/17 04:54:06;;;;;;;18.90;12.90;;;;;;;8.95;100.00;100710.19;5190346;28;20562;-73
2023/02/17 04:56:36;;;;;;;20.10;12.70;;;;;;;8.96;100.00;100707.56;5199657;28;20025;-72
2023/02/17 04:59:06;;;;;;;18.95;12.35;;;;;;;8.97;100.00;100714.47;5195712;28;20040;-72
2023/02/17 05:01:36;;;;;;;19.85;12.80;;;;;;;8.92;100.00;100716.31;5191914;28;20148;-73
2023/02/17 05:04:07;;;;;;;19.33;12.60;;;;;;;9.04;100.00;100705.56;5198715;28;20033;-73
2023/02/17 05:06:37;;;;;;;22.58;13.27;;;;;;;8.97;100.00;100704.03;5199579;28;20029;-75
2023/02/17 05:09:07;;;;;;;20.35;12.40;;;;;;;9.00;100.00;100705.69;5199276;28;20047;-75
2023/02/17 05:11:38;;;;;;;19.73;12.27;;;;;;;9.05;100.00;100707.28;5199954;28;20179;-73
2023/02/17 05:14:08;;;;;;;19.92;12.02;;;;;;;9.09;100.00;100703.69;5199104;28;20033;-75
2023/02/17 05:16:38;;;;;;;20.55;12.43;;;;;;;9.06;100.00;100698.56;5199204;28;20048;-74
2023/02/17 05:19:09;;;;;;;21.77;12.63;;;;;;;9.02;100.00;100701.28;5186060;28;20034;-73
2023/02/17 05:21:40;;;;;;;20.30;12.50;;;;;;;9.03;100.00;100701.25;5201132;28;20040;-73
2023/02/17 05:24:10;;;;;;;18.27;12.18;;;;;;;8.98;100.00;100697.94;5199721;28;20025;-73
2023/02/17 05:26:40;;;;;;;19.52;12.30;;;;;;;9.10;100.00;100688.91;5199146;28;20491;-73
2023/02/17 05:29:10;;;;;;;17.55;11.93;;;;;;;8.98;100.00;100695.31;5200225;28;20106;-73
2023/02/17 05:31:41;;;;;;;19.02;12.48;;;;;;;8.96;100.00;100684.09;5199650;28;20037;-75
2023/02/17 05:34:11;;;;;;;22.52;13.20;;;;;;;8.93;100.00;100678.09;5199150;28;20067;-76
2023/02/17 05:36:42;;;;;;;23.65;13.25;;;;;;;8.90;100.00;100686.00;5198100;28;20028;-75
2023/02/17 05:39:12;;;;;;;19.70;12.90;;;;;;;9.02;100.00;100672.63;5199494;28;20025;-73
2023/02/17 05:41:42;;;;;;;20.77;13.63;;;;;;;8.93;100.00;100673.72;5197154;28;20048;-73
2023/02/17 05:44:13;;;;;;;21.67;13.55;;;;;;;8.82;100.00;100665.38;5197232;28;20087;-73
2023/02/17 05:46:43;;;;;;;19.35;13.27;;;;;;;8.93;100.00;100655.47;5186810;28;20033;-74
2023/02/17 05:49:13;;;;;;;21.45;13.45;;;;;;;8.91;100.00;100659.88;5198478;28;20076;-75
2023/02/17 05:51:44;;;;;;;20.15;13.43;;;;;;;8.95;100.00;100647.63;5199867;28;20399;-74
2023/02/17 05:54:14;;;;;;;22.27;14.23;;;;;;;8.92;100.00;100653.78;5189783;28;20025;-74
2023/02/17 05:56:44;;;;;;;22.23;13.73;;;;;;;8.93;100.00;100639.84;5199243;28;20370;-71
2023/02/17 05:59:15;;;;;;;21.60;13.85;;;;;;;8.91;100.00;100646.00;5189094;28;20044;-74
2023/02/17 06:01:45;;;;;;;24.45;14.35;;;;;;;8.90;100.00;100641.69;5199603;28;20116;-73
2023/02/17 06:04:15;;;;;;;20.20;13.38;;;;;;;8.94;100.00;100636.38;5199243;28;20060;-74
2023/02/17 06:06:46;;;;;;;22.23;13.98;;;;;;;8.94;100.00;100633.75;5198566;28;20048;-74
2023/02/17 06:09:16;;;;;;;21.05;13.00;;;;;;;8.92;100.00;100638.13;5189983;28;20067;-74
2023/02/17 06:11:46;;;;;;;17.90;12.52;;;;;;;8.98;100.00;100631.91;5198755;28;20033;-73
2023/02/17 06:14:16;;;;;;;22.08;13.32;;;;;;;9.00;100.00;100633.56;5196925;28;20037;-75
2023/02/17 06:16:47;;;;;;;22.55;13.88;;;;;;;9.04;100.00;100635.19;5151872;28;20609;-74
2023/02/17 06:19:17;;;;;;;22.08;13.45;;;;;;;9.04;100.00;100635.19;5195503;28;20265;-74
2023/02/17 06:21:47;;;;;;;21.20;13.45;;;;;;;9.06;100.00;100629.94;5176679;28;20530;-74
2023/02/17 06:24:18;;;;;;;20.27;12.82;;;;;;;9.13;100.00;100636.69;5197077;28;20033;-76
2023/02/17 06:26:48;;;;;;;19.77;12.70;;;;;;;9.13;100.00;100635.78;5183319;28;20033;-73
2023/02/17 06:29:18;;;;;;;20.17;13.43;;;;;;;9.30;100.00;100635.31;5198704;28;20039;-76
2023/02/17 06:31:49;;;;;;;23.15;13.98;;;;;;;9.21;100.00;100632.94;5198060;28;20030;-74
2023/02/17 06:34:19;;;;;;;20.75;13.60;;;;;;;9.14;100.00;100632.28;5197751;28;20104;-74
2023/02/17 06:36:49;;;;;;;23.50;13.10;;;;;;;9.26;100.00;100624.09;5196850;28;20559;-73
2023/02/17 06:39:20;;;;;;;19.90;12.80;;;;;;;9.31;100.00;100627.41;5197965;28;20030;-74
2023/02/17 06:41:50;;;;;;;17.90;12.70;;;;;;;9.36;100.00;100625.56;5196464;28;20021;-74
2023/02/17 06:44:21;;;;;;;19.85;12.20;;;;;;;9.31;100.00;100622.22;5198334;28;20025;-74
2023/02/17 06:46:51;;;;;;;20.80;12.23;;;;;;;9.31;100.00;100613.53;5198518;28;20039;-75
2023/02/17 06:49:21;;;;;;;19.65;12.27;;;;;;;9.41;100.00;100618.44;5198532;28;20021;-76
2023/02/17 06:51:52;;;;;;;19.55;12.63;;;;;;;9.39;100.00;100620.25;5189122;28;20025;-76
2023/02/17 06:54:22;;;;;;;17.33;11.82;;;;;;;9.46;100.00;100618.31;5200613;28;20029;-74
2023/02/17 06:56:53;;;;;;;17.05;11.13;;;;;;;9.49;100.00;100610.38;5189671;28;20688;-74
2023/02/17 06:59:23;;;;;;;17.98;12.00;;;;;;;9.47;100.00;100614.78;5202979;28;20075;-75
2023/02/17 07:01:53;;;;;;;17.67;12.05;;;;;;;9.50;100.00;100607.72;5203302;28;20083;-76
2023/02/17 07:04:23;;;;;;;17.60;12.00;;;;;;;9.48;100.00;100606.06;5203048;28;20495;-75
2023/02/17 07:06:54;;;;;;;20.23;11.88;;;;;;;9.53;100.00;100609.38;5202563;28;20125;-74
2023/02/17 07:09:24;;;;;;;20.30;12.23;;;;;;;9.55;100.00;100604.97;5203073;28;20495;-74
2023/02/17 07:11:56;;;;;;;19.55;12.27;;;;;;;9.64;100.00;100594.25;5193582;28;20609;-75
2023/02/17 07:14:26;;;;;;;17.92;11.98;;;;;;;9.62;100.00;100591.69;5202944;28;20025;-75
2023/02/17 07:16:56;;;;;;;18.83;12.27;;;;;;;9.71;100.00;100586.19;5202792;28;20055;-75
2023/02/17 07:19:27;;;;;;;18.58;12.73;;;;;;;9.67;100.00;100591.53;5193554;28;20025;-74
2023/02/17 07:21:58;;;;;;;20.05;11.93;;;;;;;9.74;100.00;100590.44;5203075;28;20073;-75
2023/02/17 07:24:29;;;;;;;17.55;12.13;;;;;;;9.79;100.00;100578.13;5202558;28;20114;-74
2023/02/17 07:26:59;;;;;;;23.27;13.13;;;;;;;9.81;100.00;100584.13;5202723;28;20029;-74
2023/02/17 07:29:30;;;;;;;23.50;13.77;;;;;;;9.73;100.00;100580.91;5202229;28;20033;-74
2023/02/17 07:32:00;;;;;;;19.25;12.57;;;;;;;9.73;100.00;100583.50;5202475;28;20166;-74
2023/02/17 07:34:30;;;;;;;22.48;13.57;;;;;;;9.74;100.00;100590.44;5202181;28;20473;-76
2023/02/17 07:37:00;;;;;;;19.65;13.18;;;;;;;9.76;100.00;100604.28;5201647;28;20120;-75
2023/02/17 07:39:32;;;;;;;21.83;13.15;;;;;;;9.84;100.00;100608.34;5202664;28;20398;-75
2023/02/17 07:42:03;;;;;;;20.90;13.05;;;;;;;9.92;100.00;100585.50;5201875;28;20679;-75
2023/02/17 07:44:34;;;;;;;22.63;13.30;;;;;;;10.01;100.00;100589.56;5201444;28;20418;-74
2023/02/17 07:47:04;;;;;;;21.30;13.00;;;;;;;9.98;100.00;100585.28;5200876;28;20029;-73
2023/02/17 07:49:34;;;;;;;23.33;13.35;;;;;;;9.92;100.00;100587.22;5200885;28;20646;-74
2023/02/17 07:52:05;;;;;;;19.63;13.35;;;;;;;9.91;100.00;100570.72;5186193;28;20116;-75
2023/02/17 07:54:35;;;;;;;22.27;14.07;;;;;;;9.97;100.00;100564.47;5200325;28;20042;-74
2023/02/17 07:57:05;;;;;;;20.63;12.77;;;;;;;10.05;100.00;100562.47;5201587;28;20080;-75
2023/02/17 07:59:36;;;;;;;18.17;11.88;;;;;;;10.00;100.00;100551.28;5201846;28;20439;-75
2023/02/17 08:02:06;;;;;;;20.10;13.57;;;;;;;10.04;100.00;100545.09;5201486;28;20108;-75
2023/02/17 08:04:36;;;;;;;21.83;12.52;;;;;;;10.14;100.00;100549.13;5192577;28;20033;-74
2023/02/17 08:07:07;;;;;;;18.52;11.88;;;;;;;10.18;100.00;100548.94;5191665;28;20033;-74
2023/02/17 08:15:15;;;;;;;14.25;9.90;;;;;;;10.20;100.00;100530.59;5198083;28;20118;-75
2023/02/17 08:17:47;;;;;;;17.02;9.45;;;;;;;10.30;100.00;100530.22;5201396;28;20029;-74
2023/02/17 08:20:17;;;;;;;13.15;8.98;;;;;;;10.32;100.00;100527.59;5202348;28;20041;-76
2023/02/17 08:22:48;;;;;;;13.32;8.93;;;;;;;10.42;100.00;100523.72;5201739;28;20488;-75
2023/02/17 08:25:18;;;;;;;13.52;9.20;;;;;;;10.41;100.00;100527.25;5192372;28;20036;-74
2023/02/17 08:27:48;;;;;;;13.30;8.95;;;;;;;10.41;100.00;100519.41;5201486;28;20067;-74
2023/02/17 08:30:19;;;;;;;15.40;9.02;;;;;;;10.49;100.00;100520.00;5201875;28;20320;-74
2023/02/17 08:32:49;;;;;;;15.20;8.63;;;;;;;10.54;100.00;100505.81;5190427;28;20083;-74
2023/02/17 08:35:21;;;;;;;13.07;8.35;;;;;;;10.49;100.00;100510.38;5199146;28;20028;-75
2023/02/17 08:37:51;;;;;;;14.85;9.18;;;;;;;10.53;100.00;100511.97;5201987;28;20403;-73
2023/02/17 08:40:22;;;;;;;14.10;8.13;;;;;;;10.55;100.00;100515.38;5201192;28;20025;-74
2023/02/17 08:42:52;;;;;;;13.45;8.77;;;;;;;10.58;100.00;100519.66;5200744;28;20383;-74
2023/02/17 08:45:23;;;;;;;16.23;8.40;;;;;;;10.58;100.00;100522.25;5200651;28;20105;-73
2023/02/17 08:47:53;;;;;;;12.23;7.75;;;;;;;10.56;100.00;100506.66;5199313;28;20021;-74
2023/02/17 08:50:23;;;;;;;13.73;8.60;;;;;;;10.61;100.00;100488.16;5199363;28;20454;-74
2023/02/17 08:52:54;;;;;;;13.25;7.95;;;;;;;10.62;100.00;100495.97;5201279;28;20026;-75
2023/02/17 08:55:24;;;;;;;14.38;7.80;;;;;;;10.70;100.00;100487.84;5200774;28;20056;-74
2023/02/17 08:57:54;;;;;;;13.20;8.10;;;;;;;10.69;100.00;100491.38;5191444;28;20029;-75
2023/02/17 09:00:25;;;;;;;13.50;8.13;;;;;;;10.74;100.00;100498.13;5201083;28;20017;-74
2023/02/17 09:02:55;;;;;;;11.95;7.47;;;;;;;10.77;100.00;100500.63;5201239;28;20394;-74
2023/02/17 09:05:25;;;;;;;13.95;8.55;;;;;;;10.78;100.00;100486.63;5201015;28;20048;-74
2023/02/17 09:07:56;;;;;;;12.45;7.78;;;;;;;10.87;100.00;100481.06;5200806;28;20052;-74
2023/02/17 09:10:26;;;;;;;11.63;7.70;;;;;;;10.90;100.00;100472.25;5201179;28;20017;-74
2023/02/17 09:12:57;;;;;;;13.40;8.35;;;;;;;10.90;100.00;100475.72;5191503;28;20045;-74
2023/02/17 09:15:28;;;;;;;12.55;7.72;;;;;;;10.97;100.00;100477.19;5183063;28;20025;-74
2023/02/17 09:17:59;;;;;;;17.17;7.88;;;;;;;10.93;100.00;100469.50;5199828;28;20033;-74
2023/02/17 09:20:29;;;;;;;13.52;7.50;;;;;;;10.91;100.00;100466.09;5200879;28;20029;-74
2023/02/17 09:23:00;;;;;;;17.35;8.00;;;;;;;10.98;100.00;100462.31;5201111;28;20033;-74
2023/02/17 09:25:30;;;;;;;12.15;7.80;;;;;;;11.03;100.00;100469.97;5187821;28;20283;-73
2023/02/17 09:28:01;;;;;;;12.43;7.75;;;;;;;10.95;100.00;100467.69;5200030;28;20022;-74
2023/02/17 09:30:31;;;;;;;13.85;8.48;;;;;;;11.04;100.00;100461.19;5187783;28;20094;-72
2023/02/17 09:33:04;;;;;;;12.35;7.78;;;;;;;11.00;100.00;100461.38;5199560;28;20098;-72
2023/02/17 09:35:36;;;;;;;14.20;8.18;;;;;;;11.02;100.00;100455.19;5199488;28;20399;-74
2023/02/17 09:38:09;;;;;;;13.45;7.65;;;;;;;11.06;100.00;100458.50;5190057;28;20029;-73
2023/02/17 09:40:47;;;;;;;11.88;7.55;;;;;;;11.07;100.00;100457.63;5200310;28;20034;-75
2023/02/17 09:43:24;;;;;;;13.20;7.28;;;;;;;10.98;100.00;100451.88;5197018;28;20475;-73
2023/02/17 09:46:05;;;;;;;11.73;8.07;;;;;;;11.06;100.00;100458.50;5198042;28;20332;-74
2023/02/17 09:48:37;;;;;;;11.45;7.22;;;;;;;11.18;100.00;100458.91;5198389;28;20658;-74
2023/02/17 09:51:16;;;;;;;13.23;7.22;;;;;;;11.14;100.00;100462.50;5199336;28;20071;-74
2023/02/17 09:54:05;;;;;;;10.20;7.05;;;;;;;11.13;100.00;100442.50;5186024;28;20132;-73
2023/02/17 09:56:40;;;;;;;10.80;7.25;;;;;;;11.28;100.00;100447.13;5199502;28;20104;-73
2023/02/17 09:59:19;;;;;;;12.88;6.90;;;;;;;11.22;100.00;100446.53;5190260;28;20039;-74
2023/02/17 10:01:51;;;;;;;12.13;7.05;;;;;;;11.29;100.00;100448.84;5200848;28;20112;-74
2023/02/17 10:04:28;;;;;;;9.05;6.68;;;;;;;11.29;100.00;100443.59;5198362;28;20029;-74
2023/02/17 10:07:04;;;;;;;8.73;6.38;;;;;;;11.32;100.00;100443.50;5199357;28;20056;-73
2023/02/17 10:09:50;;;;;;;11.35;7.28;;;;;;;11.34;100.00;100453.88;5200241;28;20053;-74
2023/02/17 10:12:25;;;;;;;9.18;6.20;;;;;;;11.46;100.00;100435.91;5197698;28;20502;-74
2023/02/17 10:15:06;;;;;;;11.90;6.72;;;;;;;11.48;100.00;100448.94;5198796;28;20111;-74
2023/02/17 10:17:52;;;;;;;8.85;6.28;;;;;;;11.46;100.00;100433.28;5199032;28;20036;-74
2023/02/17 10:20:30;;;;;;;10.20;6.28;;;;;;;11.55;100.00;100429.44;5197853;28;20025;-74
2023/02/17 10:23:09;;;;;;;10.98;6.22;;;;;;;11.61;100.00;100431.84;5200144;28;20033;-75
2023/02/17 10:25:56;;;;;;;9.65;6.32;;;;;;;11.63;100.00;100422.16;5189516;28;20029;-74
2023/02/17 10:28:51;;;;;;;8.98;6.00;;;;;;;11.60;100.00;100415.28;5188457;28;20599;-74
2023/02/17 10:31:44;;;;;;;14.48;5.90;;;;;;;11.67;100.00;100398.44;5189452;28;20029;-74
2023/02/17 10:34:34;;;;;;;7.65;5.50;;;;;;;11.58;100.00;100401.41;5190169;28;20445;-75
2023/02/17 10:37:29;;;;;;;9.70;5.45;;;;;;;11.59;100.00;100405.72;5202690;28;20401;-75
2023/02/17 10:40:02;;;;;;;9.23;5.70;;;;;;;11.67;100.00;100387.09;5203146;28;20037;-74
2023/02/17 10:42:37;;;;;;;10.35;5.88;;;;;;;11.81;100.00;100375.09;5188307;28;20040;-72
2023/02/17 10:45:18;;;;;;;9.52;5.57;;;;;;;11.85;100.00;100389.78;5203149;28;20037;-74
2023/02/17 10:47:55;;;;;;;7.63;5.20;;;;;;;11.87;100.00;100380.06;5186772;28;20124;-74
2023/02/17 10:50:25;;;;;;;7.75;5.38;;;;;;;11.95;100.00;100379.75;5203920;28;20056;-73
2023/02/17 10:52:56;;;;;;;8.18;5.20;;;;;;;11.96;100.00;100373.59;5193543;28;20877;-74
2023/02/17 10:55:49;;;;;;;7.88;5.43;;;;;;;11.97;100.00;100375.28;5203029;28;20029;-74
2023/02/17 10:58:30;;;;;;;10.15;5.40;;;;;;;11.97;100.00;100375.28;5200407;28;20116;-73
2023/02/17 11:01:04;;;;;;;8.10;5.45;;;;;;;11.98;100.00;100377.81;5202126;28;20029;-73
2023/02/17 11:03:36;;;;;;;10.15;5.45;;;;;;;12.11;100.00;100372.91;5191517;28;20118;-73
2023/02/17 11:06:44;;;;;;;8.98;5.38;;;;;;;12.03;100.00;100373.25;5193459;28;20021;-73
2023/02/17 11:09:20;;;;;;;;;;;;;;;12.12;100.00;100369.38;5190364;28;20025;-73
2023/02/17 11:11:59;;;;;;;7.68;4.97;;;;;;;12.20;100.00;100355.00;5203337;28;19913;-74
2023/02/17 11:14:32;;;;;;;9.63;5.70;;;;;;;12.23;100.00;100360.09;5202760;28;20101;-74
2023/02/17 11:17:27;;;;;;;10.18;6.10;;;;;;;12.26;100.00;100354.72;5201529;28;20502;-73
2023/02/17 11:20:04;;;;;;;7.88;5.30;;;;;;;12.29;100.00;100348.50;5201852;28;20057;-74
2023/02/17 11:22:39;;;;;;;8.13;5.70;;;;;;;12.36;100.00;100339.41;5203200;28;20367;-73
2023/02/17 11:25:27;;;;;;;12.63;6.20;;;;;;;12.44;100.00;100342.53;5193383;28;20124;-75
2023/02/17 11:28:00;;;;;;;8.18;5.90;;;;;;;12.42;100.00;100329.50;5200768;28;20029;-74
2023/02/17 11:30:32;;;;;;;10.45;6.32;;;;;;;12.49;100.00;100330.88;5203148;28;20044;-73
2023/02/17 11:33:28;;;;;;;8.43;5.90;;;;;;;12.52;100.00;100337.78;5200793;28;20041;-74
2023/02/17 11:36:00;;;;;;;8.50;5.93;;;;;;;12.47;100.00;100332.75;5201644;28;20116;-74
2023/02/17 11:38:37;;;;;;;9.30;5.70;;;;;;;12.52;100.00;100332.53;5186916;28;20037;-74
2023/02/17 11:41:08;;;;;;;8.52;6.22;;;;;;;12.61;100.00;100325.06;5202639;28;20135;-74
2023/02/17 11:43:49;;;;;;;8.00;5.65;;;;;;;12.59;100.00;100324.31;5202574;28;20037;-74